Hamburg — V7OZ6 — position and weather

sailwx.info

Track history (hours):
 
Tides and Currents Weather Stations Pressure Air Temp Water Temp Dewpoint Dewpoint Depression Visibility Wind Speed Wind Dir Waves Ship Positions

Hamburg

Last reported at 2018-Feb-20 01:10 UTC. Time now 2018-Feb-24 03:51 UTC.
Position N 30°29' E 122°47'.

Length 293 m; draft 13.4 m.

Type: Ship. MMSI: 538006605.

Date/timePositionNaut miles runAvg speedWind from/ knotsBaromVisibWave heightAir tempDewpointWater temp
2018-Feb-20 01:10N 30°29' E 122°47'417.9
2018-Feb-20 00:58N 30°29' E 122°43'1317.9
2018-Feb-20 00:14N 30°32' E 122°28'817.0
2018-Feb-19 23:44N 30°33' E 122°18'412.4
2018-Feb-19 23:26N 30°33' E 122°13'714.4
2018-Feb-19 22:56N 30°36' E 122°06'1 2.7
2018-Feb-19 22:28N 30°37' E 122°05'0 0.0
2018-Feb-19 20:34N 30°37' E 122°05'0 0.0
2018-Feb-19 20:16N 30°37' E 122°05'0 0.0
2018-Feb-19 17:31N 30°37' E 122°05'0 0.0
2018-Feb-19 17:07N 30°37' E 122°05'0 0.4
2018-Feb-19 16:58N 30°37' E 122°05'0 0.1
2018-Feb-19 16:16N 30°37' E 122°05'0 0.0
2018-Feb-19 15:55N 30°37' E 122°05'0 0.0
2018-Feb-19 15:25N 30°37' E 122°05'0 0.1
2018-Feb-19 14:52N 30°37' E 122°05'0 0.0
2018-Feb-19 14:19N 30°37' E 122°05'0 0.1
2018-Feb-19 13:55N 30°37' E 122°05'0 0.0
2018-Feb-19 12:49N 30°37' E 122°05'0 0.0
2018-Feb-19 11:38N 30°37' E 122°05'1 2.1
2018-Feb-19 11:21N 30°36' E 122°04'0 0.5
2018-Feb-19 10:55N 30°36' E 122°04'1 2.0
2018-Feb-19 10:29N 30°36' E 122°05'6 9.3
2018-Feb-19 09:53N 30°34' E 122°11'  
2018-Feb-13 05:20N 24°23' E 119°10'1518.3
2018-Feb-13 04:30N 24°12' E 118°58'918.5
2018-Feb-13 04:00N 24°06' E 118°50'1018.4
2018-Feb-13 03:27N 23°60' E 118°42'818.3
2018-Feb-13 03:00N 23°54' E 118°35'918.0
2018-Feb-13 02:29N 23°48' E 118°27'918.4
2018-Feb-13 01:58N 23°44' E 118°18'918.6
2018-Feb-13 01:30N 23°39' E 118°10'1019.1
2018-Feb-13 01:00N 23°33' E 118°02'1019.5
2018-Feb-13 00:30N 23°27' E 117°54'1019.6
2018-Feb-13 00:00N 23°21' E 117°46'1019.3
2018-Feb-12 23:30N 23°15' E 117°37'1019.1
2018-Feb-12 22:59N 23°10' E 117°28'1118.7
2018-Feb-12 22:25N 23°04' E 117°18'18416.0
2018-Feb-12 10:58N 22°18' E 114°06'1 0.1
2018-Feb-11 21:29N 22°19' E 114°06'50 1.6
2018-Feb-10 13:38N 22°10' E 114°59'511.7
2018-Feb-10 13:10N 22°10' E 115°05'1611.8
2018-Feb-10 11:47N 22°11' E 115°22'311.5
2018-Feb-10 11:30N 22°12' E 115°25'611.3
2018-Feb-10 11:00N 22°12' E 115°32'611.4
2018-Feb-10 10:30N 22°12' E 115°38'611.3
2018-Feb-10 09:58N 22°12' E 115°44'612.0
2018-Feb-10 09:30N 22°13' E 115°50'712.2
2018-Feb-10 08:57N 22°13' E 115°58'612.2
2018-Feb-10 08:26N 22°14' E 116°04'712.2
2018-Feb-10 07:52N 22°14' E 116°12'  
Track history (hours):
 
Tides and Currents Weather Stations Pressure Air Temp Water Temp Dewpoint Dewpoint Depression Visibility Wind Speed Wind Dir Waves Ship Positions

Hamburg

Last reported at 2018-Feb-20 01:10 UTC. Time now 2018-Feb-24 03:51 UTC.
Position N 30°29' E 122°47'.

Length 293 m; draft 13.4 m.

Type: Ship. MMSI: 538006605.

Date/timePositionNaut miles runAvg speedWind from/ knotsBaromVisibWave heightAir tempDewpointWater temp
2018-Feb-20 01:10N 30°29' E 122°47'417.9
2018-Feb-20 00:58N 30°29' E 122°43'1317.9
2018-Feb-20 00:14N 30°32' E 122°28'817.0
2018-Feb-19 23:44N 30°33' E 122°18'412.4
2018-Feb-19 23:26N 30°33' E 122°13'714.4
2018-Feb-19 22:56N 30°36' E 122°06'1 2.7
2018-Feb-19 22:28N 30°37' E 122°05'0 0.0
2018-Feb-19 20:34N 30°37' E 122°05'0 0.0
2018-Feb-19 20:16N 30°37' E 122°05'0 0.0
2018-Feb-19 17:31N 30°37' E 122°05'0 0.0
2018-Feb-19 17:07N 30°37' E 122°05'0 0.4
2018-Feb-19 16:58N 30°37' E 122°05'0 0.1
2018-Feb-19 16:16N 30°37' E 122°05'0 0.0
2018-Feb-19 15:55N 30°37' E 122°05'0 0.0
2018-Feb-19 15:25N 30°37' E 122°05'0 0.1
2018-Feb-19 14:52N 30°37' E 122°05'0 0.0
2018-Feb-19 14:19N 30°37' E 122°05'0 0.1
2018-Feb-19 13:55N 30°37' E 122°05'0 0.0
2018-Feb-19 12:49N 30°37' E 122°05'0 0.0
2018-Feb-19 11:38N 30°37' E 122°05'1 2.1
2018-Feb-19 11:21N 30°36' E 122°04'0 0.5
2018-Feb-19 10:55N 30°36' E 122°04'1 2.0
2018-Feb-19 10:29N 30°36' E 122°05'6 9.3
2018-Feb-19 09:53N 30°34' E 122°11'  
2018-Feb-13 05:20N 24°23' E 119°10'1518.3
2018-Feb-13 04:30N 24°12' E 118°58'918.5
2018-Feb-13 04:00N 24°06' E 118°50'1018.4
2018-Feb-13 03:27N 23°60' E 118°42'818.3
2018-Feb-13 03:00N 23°54' E 118°35'918.0
2018-Feb-13 02:29N 23°48' E 118°27'918.4
2018-Feb-13 01:58N 23°44' E 118°18'918.6
2018-Feb-13 01:30N 23°39' E 118°10'1019.1
2018-Feb-13 01:00N 23°33' E 118°02'1019.5
2018-Feb-13 00:30N 23°27' E 117°54'1019.6
2018-Feb-13 00:00N 23°21' E 117°46'1019.3
2018-Feb-12 23:30N 23°15' E 117°37'1019.1
2018-Feb-12 22:59N 23°10' E 117°28'1118.7
2018-Feb-12 22:25N 23°04' E 117°18'18416.0
2018-Feb-12 10:58N 22°18' E 114°06'1 0.1
2018-Feb-11 21:29N 22°19' E 114°06'50 1.6
2018-Feb-10 13:38N 22°10' E 114°59'511.7
2018-Feb-10 13:10N 22°10' E 115°05'1611.8
2018-Feb-10 11:47N 22°11' E 115°22'311.5
2018-Feb-10 11:30N 22°12' E 115°25'611.3
2018-Feb-10 11:00N 22°12' E 115°32'611.4
2018-Feb-10 10:30N 22°12' E 115°38'611.3
2018-Feb-10 09:58N 22°12' E 115°44'612.0
2018-Feb-10 09:30N 22°13' E 115°50'712.2
2018-Feb-10 08:57N 22°13' E 115°58'612.2
2018-Feb-10 08:26N 22°14' E 116°04'712.2
2018-Feb-10 07:52N 22°14' E 116°12'  

Dump ship's entire track history